Time;durP1;ratioP1;P1;durP2;ratioP2;P2;SDS_P1;SDS_P2;PMS_P1;PMS_P2;Temp;Humidity;BMP_temperature;BMP_pressure;BME280_temperature;BME280_humidity;BME280_pressure;Samples;Min_cycle;Max_cycle;Signal;HPM_P1;HPM_P2
2021/08/28 00:00:39;;;;;;;8.97;3.27;;;;;;;14.67;88.69;101741.69;4979045;28;20487;-68
2021/08/28 00:03:10;;;;;;;5.43;3.07;;;;;;;14.63;89.17;101750.97;4985929;28;20235;-68
2021/08/28 00:05:38;;;;;;;5.43;2.83;;;;;;;14.72;88.87;101734.13;4987157;28;20678;-68
2021/08/28 00:08:06;;;;;;;9.53;2.60;;;;;;;14.66;88.70;101731.84;4980750;28;20266;-68
2021/08/28 00:10:34;;;;;;;5.03;2.53;;;;;;;14.58;89.34;101738.63;4984653;28;20211;-68
2021/08/28 00:13:04;;;;;;;3.63;2.80;;;;;;;14.51;89.41;101739.16;4983604;28;20250;-68
2021/08/28 00:15:32;;;;;;;8.07;3.03;;;;;;;14.58;89.47;101730.53;4982720;28;20265;-68
2021/08/28 00:18:00;;;;;;;4.17;2.60;;;;;;;14.61;88.94;101732.16;4987028;28;20226;-68
2021/08/28 00:20:29;;;;;;;5.40;2.80;;;;;;;14.67;88.63;101730.84;4985381;28;20289;-67
2021/08/28 00:22:57;;;;;;;5.30;2.63;;;;;;;14.65;89.05;101727.41;4986908;28;20219;-68
2021/08/28 00:25:25;;;;;;;4.57;2.87;;;;;;;14.67;88.73;101733.56;4985301;28;20549;-67
2021/08/28 00:27:53;;;;;;;4.37;2.50;;;;;;;14.68;88.13;101727.19;4986762;28;20435;-68
2021/08/28 00:30:22;;;;;;;4.87;2.60;;;;;;;14.62;88.72;101730.31;4986048;28;20212;-68
2021/08/28 00:32:50;;;;;;;10.03;2.50;;;;;;;14.65;88.84;101724.69;4986309;28;20242;-68
2021/08/28 00:35:18;;;;;;;5.37;2.83;;;;;;;14.61;88.75;101724.03;4986740;28;20261;-67
2021/08/28 00:37:46;;;;;;;7.37;2.70;;;;;;;14.62;88.24;101722.19;4985384;28;20204;-68
2021/08/28 00:40:15;;;;;;;7.83;2.50;;;;;;;14.66;88.47;101718.31;4986982;28;20227;-68
2021/08/28 00:42:47;;;;;;;4.43;2.80;;;;;;;14.60;88.48;101717.78;4984803;28;20289;-68
2021/08/28 00:45:15;;;;;;;4.50;2.47;;;;;;;14.59;88.60;101717.88;4986625;28;20211;-68
2021/08/28 00:47:51;;;;;;;3.27;2.10;;;;;;;14.21;88.33;101647.50;4984750;28;20200;-68
2021/08/28 00:50:19;;;;;;;4.13;2.63;;;;;;;14.55;88.45;101711.81;4985794;28;20647;-68
2021/08/28 00:52:48;;;;;;;7.03;2.80;;;;;;;14.62;88.67;101717.66;4983679;28;20279;-67
2021/08/28 00:55:16;;;;;;;5.60;2.63;;;;;;;14.54;88.62;101717.34;4977644;28;20216;-67
2021/08/28 00:57:44;;;;;;;8.00;2.70;;;;;;;14.56;88.87;101715.38;4976340;28;20211;-68
2021/08/28 01:00:13;;;;;;;5.90;2.47;;;;;;;14.33;88.88;101676.38;4983689;28;20227;-68
2021/08/28 01:02:44;;;;;;;3.70;2.33;;;;;;;14.56;88.40;101697.34;4975904;28;20242;-68
2021/08/28 01:05:19;;;;;;;5.40;2.70;;;;;;;14.57;88.52;101701.75;4977058;28;20202;-68
2021/08/28 01:08:05;;;;;;;4.50;2.50;;;;;;;14.50;88.77;101697.75;4976197;28;20283;-68
2021/08/28 01:11:08;;;;;;;7.13;3.53;;;;;;;14.54;88.49;101696.56;4977723;28;20894;-68
2021/08/28 01:13:44;;;;;;;4.47;2.63;;;;;;;14.57;89.13;101696.34;4977940;28;20210;-67
2021/08/28 01:16:15;;;;;;;4.50;2.63;;;;;;;14.52;88.41;101693.13;4966741;28;20219;-66
2021/08/28 01:18:46;;;;;;;5.30;3.80;;;;;;;14.56;88.48;101700.03;4979475;28;20203;-67
2021/08/28 01:21:23;;;;;;;4.30;2.33;;;;;;;14.42;88.81;101689.28;4974940;28;20238;-67
2021/08/28 01:24:15;;;;;;;4.47;2.13;;;;;;;14.54;88.78;101699.28;4976675;28;20211;-68
2021/08/28 01:27:03;;;;;;;7.07;3.03;;;;;;;14.58;88.98;101703.50;4999658;28;20207;-68
2021/08/28 01:29:33;;;;;;;5.73;3.77;;;;;;;14.49;89.30;101695.16;4979254;28;20562;-68
2021/08/28 01:32:03;;;;;;;7.40;3.60;;;;;;;14.61;88.61;101699.72;4983712;28;20636;-68
2021/08/28 01:34:33;;;;;;;5.33;2.73;;;;;;;14.59;88.49;101696.25;4997466;28;20214;-68
2021/08/28 01:37:03;;;;;;;5.67;2.83;;;;;;;14.52;88.88;101705.75;4983836;28;20294;-68
2021/08/28 01:39:51;;;;;;;7.80;2.27;;;;;;;14.49;88.86;101696.03;4975645;28;20230;-67
2021/08/28 01:42:31;;;;;;;5.53;2.13;;;;;;;14.52;88.74;101703.94;4995546;28;20597;-67
2021/08/28 01:45:02;;;;;;;4.07;2.70;;;;;;;14.48;89.14;101697.00;4972238;28;20229;-67
2021/08/28 01:47:32;;;;;;;3.83;2.13;;;;;;;14.53;88.79;101697.53;4980278;28;20212;-68
2021/08/28 01:50:01;;;;;;;4.43;2.40;;;;;;;14.63;88.46;101703.16;4969927;28;20258;-68
2021/08/28 01:52:30;;;;;;;3.67;2.17;;;;;;;14.59;88.89;101705.22;4977567;28;20307;-68
2021/08/28 01:54:59;;;;;;;4.80;2.20;;;;;;;14.53;88.44;101692.13;4996623;28;20667;-68
2021/08/28 01:57:37;;;;;;;2.87;2.23;;;;;;;14.39;88.76;101678.69;4977555;28;20208;-68
2021/08/28 02:00:25;;;;;;;4.50;2.77;;;;;;;14.49;88.72;101690.63;4969723;28;20247;-68
2021/08/28 02:02:54;;;;;;;2.73;2.17;;;;;;;14.29;89.09;101666.75;4993623;28;20382;-68
2021/08/28 02:05:23;;;;;;;4.83;2.13;;;;;;;14.50;89.03;101694.19;4983369;28;20290;-68
2021/08/28 02:08:07;;;;;;;3.70;2.07;;;;;;;14.56;88.38;101691.06;4981905;28;20215;-68
2021/08/28 02:10:39;;;;;;;3.47;2.30;;;;;;;14.58;88.34;101689.97;4972787;28;20210;-68
2021/08/28 02:13:15;;;;;;;2.80;2.10;;;;;;;14.51;89.17;101682.41;4981394;28;20226;-68
2021/08/28 02:15:48;;;;;;;6.23;2.10;;;;;;;14.53;88.80;101670.50;4979273;28;20579;-67
2021/08/28 02:18:24;;;;;;;4.03;2.23;;;;;;;14.27;88.70;101625.47;4983205;28;20254;-68
2021/08/28 02:21:10;;;;;;;5.27;2.40;;;;;;;14.52;88.88;101686.84;4971332;28;20240;-67
2021/08/28 02:23:46;;;;;;;3.47;2.07;;;;;;;14.48;88.68;101672.69;4981367;28;20573;-68
2021/08/28 02:26:22;;;;;;;4.37;2.83;;;;;;;14.54;88.42;101671.38;4974859;28;20682;-68
2021/08/28 02:28:58;;;;;;;4.47;2.43;;;;;;;14.54;88.45;101671.38;4980344;28;20252;-68
2021/08/28 02:31:32;;;;;;;3.63;2.03;;;;;;;14.60;88.51;101665.53;4978809;28;20215;-67
2021/08/28 02:34:05;;;;;;;3.87;2.37;;;;;;;14.55;88.55;101654.19;4998253;28;20222;-67
2021/08/28 02:36:34;;;;;;;3.63;2.20;;;;;;;14.49;89.10;101651.91;4984171;28;20215;-67
2021/08/28 02:39:03;;;;;;;2.63;2.07;;;;;;;14.44;89.24;101648.66;4985249;28;20924;-67
2021/08/28 02:41:32;;;;;;;8.17;2.57;;;;;;;14.51;88.32;101661.66;4985249;28;20233;-67
2021/08/28 02:44:02;;;;;;;4.33;2.13;;;;;;;14.50;89.03;101653.66;4986947;28;20499;-67
2021/08/28 02:46:32;;;;;;;6.83;2.20;;;;;;;14.46;88.70;101652.13;4984952;28;20218;-67
2021/08/28 02:49:08;;;;;;;3.67;2.03;;;;;;;14.51;88.57;101656.25;4977618;28;20250;-67
2021/08/28 02:51:40;;;;;;;3.80;2.27;;;;;;;14.52;89.21;101657.09;4996752;28;20207;-67
2021/08/28 02:54:12;;;;;;;4.83;1.90;;;;;;;14.50;89.42;101651.81;4986419;28;20243;-67
2021/08/28 02:56:41;;;;;;;3.43;1.90;;;;;;;14.45;89.60;101653.09;4985869;28;20294;-67
2021/08/28 02:59:10;;;;;;;3.50;2.10;;;;;;;14.46;89.79;101649.44;4987011;28;20219;-68
2021/08/28 03:01:40;;;;;;;5.87;2.27;;;;;;;14.48;89.32;101645.66;4984733;28;20309;-68
2021/08/28 03:04:10;;;;;;;5.57;1.90;;;;;;;14.44;89.91;101646.84;4987605;28;20271;-68
2021/08/28 03:06:40;;;;;;;3.30;2.20;;;;;;;14.52;89.91;101647.16;4985811;28;20207;-67
2021/08/28 03:09:10;;;;;;;3.40;2.17;;;;;;;14.29;89.51;101616.28;4974119;28;20216;-67
2021/08/28 03:11:38;;;;;;;3.50;2.03;;;;;;;14.43;90.25;101639.69;4988934;28;20251;-67
2021/08/28 03:14:07;;;;;;;4.20;2.13;;;;;;;14.46;89.77;101642.19;5005302;28;20207;-67
2021/08/28 03:16:42;;;;;;;5.63;2.20;;;;;;;14.51;90.04;101642.72;4988583;28;20254;-67
2021/08/28 03:19:28;;;;;;;6.03;2.17;;;;;;;14.52;89.67;101643.59;4989176;28;20216;-67
2021/08/28 03:21:58;;;;;;;7.77;3.03;;;;;;;14.51;89.63;101642.72;4988412;28;20238;-67
2021/08/28 03:24:28;;;;;;;3.33;2.10;;;;;;;14.46;89.98;101638.63;5003608;28;20223;-68
2021/08/28 03:27:08;;;;;;;4.40;2.43;;;;;;;14.24;90.01;101606.78;4988008;28;20757;-68
2021/08/28 03:29:37;;;;;;;5.03;2.27;;;;;;;14.23;89.94;101615.84;4986397;28;20204;-68
2021/08/28 03:32:08;;;;;;;3.80;2.47;;;;;;;14.43;90.19;101637.00;4987337;28;20223;-68
2021/08/28 03:34:40;;;;;;;4.73;2.50;;;;;;;14.42;90.20;101646.03;4986848;28;20208;-68
2021/08/28 03:37:09;;;;;;;5.10;2.30;;;;;;;14.46;89.72;101639.47;4987296;28;20218;-68
2021/08/28 03:39:39;;;;;;;2.00;1.80;;;;;;;14.19;90.04;101612.50;4987237;28;20211;-68
2021/08/28 03:42:08;;;;;;;8.83;3.00;;;;;;;14.47;89.55;101637.66;5002741;28;20227;-68
2021/08/28 03:44:38;;;;;;;5.13;2.63;;;;;;;14.41;89.88;101633.50;4984893;28;20274;-68
2021/08/28 03:47:13;;;;;;;4.87;2.03;;;;;;;14.44;89.68;101630.63;4986843;28;20207;-67
2021/08/28 03:49:42;;;;;;;6.00;2.23;;;;;;;14.45;89.24;101626.94;4985606;28;20328;-67
2021/08/28 03:52:10;;;;;;;2.47;1.87;;;;;;;14.43;90.03;101628.88;4977809;28;20211;-67
2021/08/28 03:54:39;;;;;;;5.37;2.60;;;;;;;14.46;89.91;101635.91;4988272;28;20180;-67
2021/08/28 03:57:07;;;;;;;4.33;2.20;;;;;;;14.44;89.22;101629.75;4988273;28;20208;-68
2021/08/28 03:59:35;;;;;;;4.70;2.57;;;;;;;14.44;89.37;101619.81;4987866;28;20213;-68
2021/08/28 04:02:04;;;;;;;2.90;1.80;;;;;;;14.46;89.03;101620.56;5001610;28;20390;-67
2021/08/28 04:04:46;;;;;;;3.50;2.37;;;;;;;14.52;88.77;101624.66;4978731;28;20215;-68
2021/08/28 04:07:15;;;;;;;8.57;2.40;;;;;;;14.41;89.26;101614.59;4984201;28;20228;-68
2021/08/28 04:09:44;;;;;;;4.07;2.30;;;;;;;14.47;89.39;101625.00;4986538;28;20212;-68
2021/08/28 04:12:13;;;;;;;4.20;1.67;;;;;;;14.37;88.96;101604.94;4993598;28;20203;-68
2021/08/28 04:14:51;;;;;;;7.30;2.00;;;;;;;14.38;89.46;101617.47;4994454;28;20215;-68
2021/08/28 04:17:19;;;;;;;6.20;2.10;;;;;;;14.35;89.60;101612.28;4999163;28;20230;-69
2021/08/28 04:19:49;;;;;;;3.87;1.60;;;;;;;14.33;89.18;101608.81;4995035;28;20268;-68
2021/08/28 04:22:29;;;;;;;5.37;2.23;;;;;;;14.40;89.67;101610.16;4997543;28;20235;-68
2021/08/28 04:25:10;;;;;;;4.13;2.03;;;;;;;14.38;89.41;101601.25;4974152;28;20633;-67
2021/08/28 04:27:58;;;;;;;4.30;2.00;;;;;;;14.21;89.17;101567.31;4984064;28;20287;-68
2021/08/28 04:30:32;;;;;;;5.90;2.07;;;;;;;14.37;88.62;101598.66;4999848;28;20331;-68
2021/08/28 04:33:01;;;;;;;3.83;1.87;;;;;;;14.41;89.09;101614.59;4986783;28;20215;-67
2021/08/28 04:35:30;;;;;;;2.83;2.00;;;;;;;14.44;89.15;101611.69;4986094;28;20569;-68
2021/08/28 04:37:59;;;;;;;748.33;362.03;;;;;;;14.46;88.46;101607.03;4986631;28;20415;-68
2021/08/28 04:40:27;;;;;;;8.97;6.47;;;;;;;14.46;88.71;101607.03;4983475;28;20961;-68
2021/08/28 04:42:55;;;;;;;5.50;3.43;;;;;;;14.49;89.07;101603.25;4982952;28;20224;-68
2021/08/28 04:45:36;;;;;;;3.80;2.50;;;;;;;14.46;89.22;101606.19;4981553;28;20346;-67
2021/08/28 04:48:20;;;;;;;5.60;2.67;;;;;;;14.45;89.32;101594.50;4994914;28;20753;-69
2021/08/28 04:50:53;;;;;;;4.20;2.90;;;;;;;14.50;89.35;101594.19;4976056;28;20212;-68
2021/08/28 04:53:22;;;;;;;3.90;1.90;;;;;;;14.45;89.45;101602.63;4981465;28;20209;-68
2021/08/28 04:55:50;;;;;;;6.13;1.90;;;;;;;14.45;89.12;101605.31;4985656;28;20206;-68
2021/08/28 04:58:18;;;;;;;3.20;2.17;;;;;;;14.46;89.42;101609.75;4980134;28;20298;-68
2021/08/28 05:01:06;;;;;;;9.73;6.80;;;;;;;14.49;89.78;101616.78;4969105;28;20212;-68
2021/08/28 05:03:54;;;;;;;4.83;2.17;;;;;;;14.51;89.42;101613.00;4968492;28;20264;-68
2021/08/28 05:06:24;;;;;;;3.43;2.10;;;;;;;14.49;89.40;101620.34;4985460;28;20196;-67
2021/08/28 05:08:52;;;;;;;4.43;2.53;;;;;;;14.44;89.77;101621.66;4974184;28;20231;-68
2021/08/28 05:11:20;;;;;;;12.93;4.77;;;;;;;14.49;89.68;101608.66;4984923;28;20246;-68
2021/08/28 05:13:49;;;;;;;7.57;5.57;;;;;;;14.48;90.43;101618.63;4980460;28;20203;-68
2021/08/28 05:16:17;;;;;;;3.63;1.83;;;;;;;14.44;89.76;101595.47;4977117;28;20306;-68
2021/08/28 05:18:45;;;;;;;2.87;1.73;;;;;;;14.39;90.29;101597.63;4985450;28;20300;-68
2021/08/28 05:21:16;;;;;;;5.37;2.00;;;;;;;14.41;90.03;101600.22;4983208;28;20338;-68
2021/08/28 05:24:06;;;;;;;3.57;2.07;;;;;;;14.43;90.21;101604.56;4973358;28;20231;-68
2021/08/28 05:26:54;;;;;;;4.97;1.93;;;;;;;14.45;90.75;101604.44;4985963;28;20227;-68
2021/08/28 05:29:22;;;;;;;4.17;1.97;;;;;;;14.34;90.89;101607.84;4984598;28;20705;-68
2021/08/28 05:31:50;;;;;;;4.97;2.00;;;;;;;14.34;91.09;101605.16;4984871;28;20217;-68
2021/08/28 05:34:18;;;;;;;3.33;2.37;;;;;;;14.36;90.73;101602.34;4985785;28;20208;-68
2021/08/28 05:37:25;;;;;;;5.30;1.87;;;;;;;14.28;91.10;101598.34;4961269;28;20211;-67
2021/08/28 05:40:08;;;;;;;7.70;2.07;;;;;;;14.32;91.18;101600.81;4945067;28;20215;-68
2021/08/28 05:42:37;;;;;;;4.90;2.10;;;;;;;14.26;91.55;101599.41;4966479;28;20239;-68
2021/08/28 05:45:06;;;;;;;3.97;1.87;;;;;;;14.17;91.64;101575.75;4979480;28;20958;-68
2021/08/28 05:47:34;;;;;;;3.53;1.97;;;;;;;14.23;91.56;101602.34;4995115;28;20226;-67
2021/08/28 05:50:07;;;;;;;6.10;2.07;;;;;;;14.19;92.34;101598.13;4985466;28;20205;-68
2021/08/28 05:52:36;;;;;;;4.30;2.03;;;;;;;14.16;91.87;101584.84;4997093;28;20286;-68
2021/08/28 05:55:05;;;;;;;3.67;2.23;;;;;;;14.13;91.87;101599.41;4986747;28;20197;-68
2021/08/28 05:57:35;;;;;;;2.90;1.90;;;;;;;14.10;92.22;101598.78;4969650;28;20455;-67
2021/08/28 06:00:03;;;;;;;3.67;1.63;;;;;;;14.20;92.67;101602.56;4998821;28;20298;-68
2021/08/28 06:02:42;;;;;;;5.23;1.67;;;;;;;14.20;92.80;101597.16;4970422;28;20243;-67
2021/08/28 06:05:19;;;;;;;3.00;2.00;;;;;;;13.66;93.02;101509.03;5002373;28;20588;-68
2021/08/28 06:08:09;;;;;;;2.60;1.80;;;;;;;14.12;93.00;101589.59;4955735;28;20208;-67
2021/08/28 06:10:55;;;;;;;3.63;1.93;;;;;;;14.15;92.75;101593.91;4982411;28;20211;-67
2021/08/28 06:13:43;;;;;;;3.67;1.70;;;;;;;14.17;92.58;101586.56;4983694;28;20355;-68
2021/08/28 06:16:26;;;;;;;3.67;1.87;;;;;;;14.14;93.25;101581.38;4968239;28;20215;-68
2021/08/28 06:19:03;;;;;;;2.30;1.80;;;;;;;14.11;93.75;101578.88;4986275;28;20229;-68
2021/08/28 06:21:33;;;;;;;4.33;1.87;;;;;;;14.06;93.64;101578.31;4987049;28;20206;-68
2021/08/28 06:24:01;;;;;;;2.87;1.70;;;;;;;14.16;93.58;101584.84;4979254;28;20334;-68
2021/08/28 06:26:48;;;;;;;2.77;1.90;;;;;;;14.13;93.84;101576.94;4987275;28;20266;-69
2021/08/28 06:29:17;;;;;;;2.33;1.53;;;;;;;14.11;94.31;101578.88;4988526;28;20615;-69
2021/08/28 06:31:50;;;;;;;4.30;1.60;;;;;;;14.12;94.40;101577.91;4982951;28;20216;-68
2021/08/28 06:34:18;;;;;;;2.17;1.70;;;;;;;14.09;94.63;101579.00;4995636;28;20211;-68
2021/08/28 06:36:46;;;;;;;3.30;1.73;;;;;;;14.09;94.25;101578.13;4985309;28;20199;-69
2021/08/28 06:39:33;;;;;;;2.37;1.50;;;;;;;14.06;94.94;101578.31;4976428;28;20257;-68
2021/08/28 06:42:27;;;;;;;2.53;1.67;;;;;;;14.13;94.16;101571.53;4989429;28;20203;-68
2021/08/28 06:45:23;;;;;;;2.23;1.50;;;;;;;14.09;93.92;101559.22;4962710;28;20219;-69
2021/08/28 06:48:09;;;;;;;2.00;1.70;;;;;;;14.09;94.06;101567.31;4988905;28;20213;-68
2021/08/28 06:50:55;;;;;;;4.03;1.60;;;;;;;14.12;94.91;101576.09;4990019;28;20231;-68
2021/08/28 06:53:49;;;;;;;1.60;1.40;;;;;;;14.14;94.45;101575.97;4979771;28;20549;-68
2021/08/28 06:56:35;;;;;;;2.27;1.50;;;;;;;14.09;94.38;101579.00;4987887;28;20220;-68
2021/08/28 06:59:32;;;;;;;2.73;1.70;;;;;;;14.03;95.21;101568.59;4928638;28;20210;-69
2021/08/28 07:02:11;;;;;;;2.43;1.70;;;;;;;14.02;95.34;101574.97;4980924;28;20578;-69
2021/08/28 07:04:43;;;;;;;3.67;1.53;;;;;;;14.04;94.67;101582.97;4988269;28;20230;-68
2021/08/28 07:07:29;;;;;;;5.37;1.60;;;;;;;13.98;94.85;101571.59;4984969;28;20235;-69
2021/08/28 07:09:57;;;;;;;2.37;1.53;;;;;;;14.03;95.41;101583.94;4983458;28;20302;-67
2021/08/28 07:12:25;;;;;;;1.40;1.30;;;;;;;14.04;95.29;101577.56;4979556;28;20214;-68
2021/08/28 07:14:54;;;;;;;2.20;1.40;;;;;;;14.08;95.51;101582.66;4999227;28;20389;-67
2021/08/28 07:17:43;;;;;;;2.03;1.73;;;;;;;14.04;95.55;101575.72;4981985;28;20307;-68
2021/08/28 07:20:12;;;;;;;6.33;1.70;;;;;;;14.08;95.52;101579.06;4980261;28;20208;-68
2021/08/28 07:22:41;;;;;;;2.87;2.07;;;;;;;14.14;95.49;101582.25;4982481;28;20242;-68
2021/08/28 07:25:29;;;;;;;2.40;1.57;;;;;;;14.13;95.12;101582.34;4986642;28;20218;-67
2021/08/28 07:27:57;;;;;;;2.67;2.33;;;;;;;14.19;95.24;101584.63;4997487;28;20193;-68
2021/08/28 07:30:52;;;;;;;1.73;1.40;;;;;;;14.17;95.26;101575.75;4984394;28;20208;-67
2021/08/28 07:33:21;;;;;;;3.77;2.00;;;;;;;14.09;95.57;101573.59;4983615;28;20235;-68
2021/08/28 07:35:49;;;;;;;2.23;1.83;;;;;;;14.01;95.91;101597.53;4984300;28;20335;-69
2021/08/28 07:38:18;;;;;;;1.57;1.47;;;;;;;14.07;95.38;101572.81;4984393;28;20213;-69
2021/08/28 07:40:46;;;;;;;4.17;1.57;;;;;;;13.97;95.60;101567.19;4999326;28;20215;-69
2021/08/28 07:43:14;;;;;;;3.97;1.70;;;;;;;14.07;95.42;101585.44;4985746;28;21772;-69
2021/08/28 07:45:49;;;;;;;2.87;1.70;;;;;;;14.02;95.48;101585.75;4978967;28;20211;-69
2021/08/28 07:48:28;;;;;;;3.37;1.33;;;;;;;14.14;95.18;101586.78;4985754;28;20266;-69
2021/08/28 07:50:56;;;;;;;3.37;1.80;;;;;;;14.12;95.07;101581.47;4980370;28;20218;-68
2021/08/28 07:53:25;;;;;;;3.53;1.70;;;;;;;14.06;95.13;101572.91;4980839;28;20577;-69
2021/08/28 07:55:59;;;;;;;2.67;1.60;;;;;;;14.13;95.64;101568.84;4980928;28;20644;-69
2021/08/28 07:58:27;;;;;;;2.40;1.60;;;;;;;14.12;95.42;101584.19;4987912;28;20203;-69
2021/08/28 08:00:55;;;;;;;3.30;1.87;;;;;;;14.15;95.10;101572.31;4985548;28;20269;-69
2021/08/28 08:03:25;;;;;;;3.90;1.90;;;;;;;14.15;95.07;101583.09;4983815;28;20253;-68
2021/08/28 08:06:13;;;;;;;4.00;1.80;;;;;;;14.11;95.91;101579.75;4985721;28;20309;-69
2021/08/28 08:08:41;;;;;;;2.90;1.80;;;;;;;14.13;95.87;101575.09;4986897;28;20205;-69
2021/08/28 08:11:28;;;;;;;3.87;1.80;;;;;;;14.12;95.68;101567.09;4988309;28;20295;-69
2021/08/28 08:14:15;;;;;;;7.03;1.97;;;;;;;14.18;95.88;101577.47;4985975;28;20253;-68
2021/08/28 08:17:06;;;;;;;2.80;1.70;;;;;;;14.22;96.23;101568.19;4988141;28;20211;-68
2021/08/28 08:19:53;;;;;;;2.87;1.83;;;;;;;14.17;95.66;101564.94;4979173;28;20219;-69
2021/08/28 08:22:43;;;;;;;3.67;1.90;;;;;;;14.05;95.69;101550.44;4976255;28;20204;-69
2021/08/28 08:25:23;;;;;;;3.57;1.93;;;;;;;14.24;96.34;101572.50;4984717;28;20224;-69
2021/08/28 08:28:29;;;;;;;3.57;2.03;;;;;;;14.20;96.13;101580.94;4923078;29;20245;-69
2021/08/28 08:31:15;;;;;;;2.93;1.80;;;;;;;14.21;96.63;101574.56;4924359;29;20221;-69
2021/08/28 08:33:44;;;;;;;3.20;2.07;;;;;;;14.23;96.15;101581.59;4951182;28;20660;-70
2021/08/28 08:36:19;;;;;;;2.17;1.70;;;;;;;14.21;96.42;101583.53;4986200;28;20865;-69
2021/08/28 08:38:49;;;;;;;2.90;2.03;;;;;;;14.26;96.72;101577.81;4984220;28;20214;-69
2021/08/28 08:41:17;;;;;;;2.13;1.53;;;;;;;14.28;97.00;101575.88;4982060;28;20212;-69
2021/08/28 08:43:53;;;;;;;3.23;1.90;;;;;;;14.30;96.48;101571.22;4999229;28;20220;-69
2021/08/28 08:46:22;;;;;;;2.67;1.93;;;;;;;14.33;97.34;101565.59;4981618;28;20195;-70
2021/08/28 08:48:51;;;;;;;2.60;2.00;;;;;;;14.36;97.20;101576.19;4988625;28;20211;-70
2021/08/28 08:51:20;;;;;;;2.97;1.90;;;;;;;14.38;96.67;101574.22;4988211;28;20508;-69
2021/08/28 08:53:50;;;;;;;3.27;1.80;;;;;;;14.40;96.52;101580.44;4980442;28;20257;-69
2021/08/28 08:56:21;;;;;;;3.23;2.10;;;;;;;14.43;96.56;101572.13;4979950;28;20208;-70
2021/08/28 08:58:52;;;;;;;3.07;2.17;;;;;;;14.43;96.29;101563.16;4995355;28;20218;-70
2021/08/28 09:01:20;;;;;;;8.17;2.13;;;;;;;14.51;96.89;101569.75;5001796;28;20255;-69
2021/08/28 09:04:12;;;;;;;3.73;2.03;;;;;;;14.56;96.68;101562.16;4986639;28;20722;-69
2021/08/28 09:06:45;;;;;;;3.13;2.23;;;;;;;14.59;96.54;101567.34;4986426;28;20740;-69
2021/08/28 09:09:14;;;;;;;4.00;2.10;;;;;;;14.66;95.84;101566.91;4981863;28;20200;-69
2021/08/28 09:11:58;;;;;;;3.23;2.00;;;;;;;14.64;96.57;101563.44;4981988;28;20204;-70
2021/08/28 09:14:27;;;;;;;3.80;2.53;;;;;;;14.45;96.35;101536.88;4982212;28;20222;-70
2021/08/28 09:16:55;;;;;;;3.43;2.10;;;;;;;14.68;96.34;101570.34;4982756;28;20203;-69
2021/08/28 09:19:37;;;;;;;4.57;2.40;;;;;;;14.68;96.00;101567.66;4978609;28;20199;-70
2021/08/28 09:22:12;;;;;;;3.77;2.40;;;;;;;14.76;96.15;101568.00;4976359;28;20232;-70
2021/08/28 09:24:45;;;;;;;5.27;2.40;;;;;;;14.76;95.75;101566.16;4980171;28;20224;-69
2021/08/28 09:27:32;;;;;;;6.60;2.40;;;;;;;14.79;96.28;101574.03;4980030;28;20196;-70
2021/08/28 09:30:01;;;;;;;4.03;2.57;;;;;;;14.85;95.61;101567.31;4978776;28;20263;-69
2021/08/28 09:32:29;;;;;;;6.07;2.40;;;;;;;14.86;95.63;101563.63;4975709;28;20689;-69
2021/08/28 09:35:09;;;;;;;4.03;2.40;;;;;;;14.90;95.52;101560.59;4979881;28;20209;-69
2021/08/28 09:37:37;;;;;;;6.03;2.67;;;;;;;14.90;94.92;101567.84;4975473;28;20222;-70
2021/08/28 09:40:07;;;;;;;3.47;2.40;;;;;;;14.93;95.21;101564.06;4997137;28;20252;-70
2021/08/28 09:42:38;;;;;;;2.93;2.30;;;;;;;14.96;94.67;101561.13;4978421;28;20219;-69
2021/08/28 09:45:10;;;;;;;5.13;2.40;;;;;;;14.98;94.42;101559.16;4974695;28;20622;-70
2021/08/28 09:47:42;;;;;;;4.73;2.30;;;;;;;15.00;94.42;101560.81;4980658;28;20701;-69
2021/08/28 09:50:11;;;;;;;4.90;2.60;;;;;;;14.97;94.82;101554.72;4984570;28;20631;-69
2021/08/28 09:52:44;;;;;;;4.10;2.50;;;;;;;14.99;94.42;101566.31;4980342;28;20212;-69
2021/08/28 09:55:13;;;;;;;2.70;2.17;;;;;;;14.93;94.24;101559.50;4982641;28;20196;-69
2021/08/28 09:57:42;;;;;;;4.43;2.40;;;;;;;14.93;94.38;101570.31;4980858;28;20576;-69
2021/08/28 10:00:11;;;;;;;3.80;2.57;;;;;;;15.01;94.27;101549.00;4980789;28;21095;-69
2021/08/28 10:02:39;;;;;;;5.63;2.33;;;;;;;14.98;94.75;101557.31;5008661;28;20334;-70
2021/08/28 10:05:11;;;;;;;6.57;2.43;;;;;;;14.95;94.60;101554.84;4977063;28;20235;-69
2021/08/28 10:07:40;;;;;;;4.07;2.43;;;;;;;14.98;94.11;101551.06;4988149;28;20195;-70
2021/08/28 10:10:09;;;;;;;6.13;3.00;;;;;;;14.94;94.55;101554.97;4979817;28;20447;-69
2021/08/28 10:12:40;;;;;;;6.30;2.33;;;;;;;14.99;94.51;101564.47;4974212;28;20205;-70
2021/08/28 10:15:09;;;;;;;4.37;2.70;;;;;;;15.01;94.25;101546.31;4969331;28;20197;-69
2021/08/28 10:17:40;;;;;;;4.80;2.50;;;;;;;14.96;94.15;101553.88;4987637;28;20219;-69
2021/08/28 10:20:10;;;;;;;4.93;2.57;;;;;;;15.03;94.15;101552.47;4992003;28;20290;-69
2021/08/28 10:22:41;;;;;;;8.50;2.47;;;;;;;14.99;94.62;101550.06;4973788;28;20199;-69
2021/08/28 10:25:12;;;;;;;4.23;2.30;;;;;;;15.06;93.95;101552.25;4980356;28;20286;-70
2021/08/28 10:27:42;;;;;;;3.97;2.50;;;;;;;15.03;94.74;101557.00;4989066;28;20202;-70
2021/08/28 10:30:12;;;;;;;2.40;2.17;;;;;;;15.05;94.09;101542.41;4989398;28;20196;-70
2021/08/28 10:32:41;;;;;;;5.07;2.50;;;;;;;15.00;94.80;101544.56;4986810;28;20275;-69
2021/08/28 10:35:10;;;;;;;4.00;2.40;;;;;;;15.00;94.38;101555.41;4983505;28;20193;-69
2021/08/28 10:37:38;;;;;;;3.73;2.30;;;;;;;15.04;94.40;101535.25;4980085;28;20238;-70
2021/08/28 10:40:10;;;;;;;4.80;2.70;;;;;;;15.13;94.82;101545.38;4988462;28;20298;-70
2021/08/28 10:42:41;;;;;;;3.93;2.43;;;;;;;15.16;93.69;101541.59;4988908;28;20262;-70
2021/08/28 10:45:12;;;;;;;5.23;2.80;;;;;;;15.00;94.09;101512.13;4988903;28;20706;-69
2021/08/28 10:48:04;;;;;;;5.23;2.67;;;;;;;15.21;93.71;101542.09;4984406;28;20650;-69
2021/08/28 10:50:35;;;;;;;6.00;2.33;;;;;;;15.21;93.57;101544.81;4988368;28;20204;-69
2021/08/28 10:53:04;;;;;;;7.97;2.37;;;;;;;15.16;93.83;101545.16;4989471;28;20229;-70
2021/08/28 10:55:38;;;;;;;5.23;2.30;;;;;;;15.14;93.53;101536.28;4976112;28;20192;-69
2021/08/28 10:58:18;;;;;;;3.47;2.30;;;;;;;15.26;93.71;101544.47;4977526;28;20369;-70
2021/08/28 11:00:49;;;;;;;5.50;2.60;;;;;;;15.18;93.49;101540.50;4981443;28;20191;-69
2021/08/28 11:03:27;;;;;;;9.80;3.07;;;;;;;14.92;93.85;101503.69;4988564;28;20295;-70
2021/08/28 11:06:24;;;;;;;4.60;2.40;;;;;;;15.20;94.26;101553.91;4973658;28;20247;-70
2021/08/28 11:08:53;;;;;;;4.43;2.63;;;;;;;15.18;94.36;101545.03;4977164;28;20211;-70
2021/08/28 11:11:29;;;;;;;8.23;2.70;;;;;;;14.92;93.86;101514.50;4982537;28;20687;-69
2021/08/28 11:14:00;;;;;;;8.50;2.47;;;;;;;14.88;94.54;101497.63;4990394;28;20254;-69
2021/08/28 11:16:52;;;;;;;4.77;2.40;;;;;;;15.26;94.51;101549.88;4982888;28;20292;-69
2021/08/28 11:19:35;;;;;;;4.30;2.60;;;;;;;15.30;94.67;101543.25;4995039;28;20346;-70
2021/08/28 11:22:07;;;;;;;9.93;2.87;;;;;;;15.22;94.36;101555.53;4980700;28;20200;-69
2021/08/28 11:24:35;;;;;;;7.93;2.73;;;;;;;15.07;94.18;101524.19;4985449;28;20246;-69
2021/08/28 11:27:05;;;;;;;3.53;2.40;;;;;;;15.18;94.42;101551.31;4992544;28;20691;-70
2021/08/28 11:29:50;;;;;;;5.93;3.07;;;;;;;15.20;94.81;101552.06;4992744;28;20200;-69
2021/08/28 11:32:22;;;;;;;3.30;2.60;;;;;;;15.20;94.60;101552.06;4979699;28;20212;-69
2021/08/28 11:34:52;;;;;;;7.10;2.70;;;;;;;15.18;95.07;101543.19;4978840;28;20200;-69
2021/08/28 11:37:40;;;;;;;5.50;2.87;;;;;;;15.17;94.69;101549.59;4979584;28;20601;-69
2021/08/28 11:40:24;;;;;;;5.00;2.80;;;;;;;15.13;95.34;101539.97;4989046;28;20202;-69
2021/08/28 11:42:53;;;;;;;4.53;2.57;;;;;;;15.18;95.74;101536.94;4990204;28;20235;-69
2021/08/28 11:45:29;;;;;;;3.60;2.57;;;;;;;15.14;95.26;101536.28;4991703;28;20263;-69
2021/08/28 11:47:58;;;;;;;4.67;2.60;;;;;;;14.68;96.22;101483.84;5007171;28;20259;-69
2021/08/28 11:50:31;;;;;;;5.07;2.20;;;;;;;14.96;96.33;101528.66;4992560;28;20258;-69
2021/08/28 11:53:00;;;;;;;4.47;2.70;;;;;;;15.09;95.98;101538.47;4991234;28;20204;-69
2021/08/28 11:55:29;;;;;;;3.67;2.40;;;;;;;14.98;95.77;101514.03;4991420;28;20208;-69